createdAt,value
2018-04-29T04:45:26.331Z,71.27
2018-04-29T04:47:53.886Z,71.25
2018-04-29T04:50:21.502Z,69.65
2018-04-29T04:52:49.114Z,70.94
2018-04-29T04:55:16.786Z,70.11
2018-04-29T04:57:44.337Z,69.84
2018-04-29T05:00:11.986Z,70.06
2018-04-29T05:02:39.546Z,68.28
2018-04-29T05:05:07.094Z,68.32
2018-04-29T05:07:34.682Z,67.06
2018-04-29T05:10:02.239Z,67.00
2018-04-29T05:12:29.833Z,66.02
2018-04-29T05:14:57.389Z,64.88
2018-04-29T05:17:25.065Z,63.98
2018-04-29T05:19:52.621Z,67.32
2018-04-29T05:22:20.177Z,64.01
2018-04-29T05:24:47.846Z,65.33
2018-04-29T05:27:15.469Z,62.86
2018-04-29T05:29:43.062Z,63.58
2018-04-29T05:32:10.731Z,63.35
2018-04-29T05:34:38.281Z,61.68
2018-04-29T05:37:05.829Z,61.72
2018-04-29T05:39:33.404Z,61.35
2018-04-29T05:42:01.071Z,61.04
2018-04-29T05:44:28.627Z,59.59
2018-04-29T05:46:56.182Z,57.80
2018-04-29T05:49:23.854Z,59.31
2018-04-29T05:51:51.417Z,58.28
2018-04-29T05:54:19.023Z,57.32
2018-04-29T05:56:46.630Z,60.31
2018-04-29T05:59:14.219Z,60.27
2018-04-29T06:01:41.775Z,57.60
2018-04-29T06:04:09.386Z,54.71
2018-04-29T06:06:37.226Z,55.92
2018-04-29T06:09:05.718Z,55.77
2018-04-29T06:11:33.383Z,57.53
2018-04-29T06:14:01.042Z,55.31
2018-04-29T06:16:28.558Z,57.40
2018-04-29T06:18:56.978Z,54.69
2018-04-29T06:21:24.580Z,56.62
2018-04-29T06:23:52.121Z,57.82
2018-04-29T06:26:19.757Z,53.22
2018-04-29T06:28:47.367Z,54.39
2018-04-29T06:31:14.907Z,51.63
2018-04-29T06:33:42.552Z,54.45
2018-04-29T06:36:10.093Z,51.41
2018-04-29T06:38:37.755Z,52.07
2018-04-29T06:41:05.306Z,50.86
2018-04-29T06:43:32.868Z,52.68
2018-04-29T06:46:00.481Z,49.41
2018-04-29T06:48:28.886Z,52.87
2018-04-29T06:50:56.492Z,51.73
2018-04-29T06:53:24.098Z,51.13
2018-04-29T06:55:51.733Z,52.31
2018-04-29T06:58:19.285Z,53.37
2018-04-29T07:00:46.903Z,51.90
2018-04-29T07:03:14.449Z,53.52
2018-04-29T07:05:42.054Z,51.74
2018-04-29T07:08:09.672Z,51.06
2018-04-29T07:10:37.334Z,52.57
2018-04-29T07:13:04.946Z,50.08
2018-04-29T07:15:32.533Z,51.22
2018-04-29T07:18:00.231Z,49.98
2018-04-29T07:20:27.770Z,49.82
2018-04-29T07:22:55.369Z,49.00
2018-04-29T07:25:22.958Z,52.10
2018-04-29T07:27:50.597Z,52.47
2018-04-29T07:30:19.019Z,51.71
2018-04-29T07:32:46.565Z,52.66
2018-04-29T07:35:14.240Z,50.66
2018-04-29T07:37:41.852Z,48.99
2018-04-29T07:40:09.492Z,45.56
2018-04-29T07:42:37.083Z,48.92
2018-04-29T07:45:04.743Z,45.46
2018-04-29T07:47:32.342Z,42.29
2018-04-29T07:49:59.998Z,45.26
2018-04-29T07:52:27.581Z,48.96
2018-04-29T07:54:55.268Z,45.17
2018-04-29T07:57:22.979Z,45.58
2018-04-29T07:59:50.588Z,45.32
2018-04-29T08:02:18.654Z,43.11
2018-04-29T08:04:46.202Z,44.54
2018-04-29T08:07:13.842Z,41.47
2018-04-29T08:09:41.487Z,40.77
2018-04-29T08:12:09.086Z,40.55
2018-04-29T08:14:36.693Z,38.25
2018-04-29T08:17:04.242Z,33.86
2018-04-29T08:19:31.830Z,34.04
2018-04-29T08:21:59.866Z,31.05
2018-04-29T08:24:27.478Z,30.82
2018-04-29T08:26:55.118Z,33.48
2018-04-29T08:29:22.665Z,38.72
2018-04-29T08:31:50.996Z,32.39
2018-04-29T08:34:18.538Z,29.70
2018-04-29T08:36:46.213Z,29.49
2018-04-29T08:39:13.789Z,29.12
2018-04-29T08:41:42.378Z,29.30
2018-04-29T08:44:10.331Z,27.38
2018-04-29T08:46:37.874Z,26.66
2018-04-29T08:49:05.477Z,27.43
2018-04-29T08:51:33.903Z,25.32
2018-04-29T08:54:01.502Z,27.71
2018-04-29T08:56:29.056Z,27.11
2018-04-29T08:58:56.623Z,26.50
2018-04-29T09:01:24.802Z,24.98
2018-04-29T09:03:52.512Z,27.04
2018-04-29T09:06:20.046Z,26.81
2018-04-29T09:08:47.836Z,23.92
2018-04-29T09:11:15.442Z,25.66
2018-04-29T09:13:42.986Z,25.14
2018-04-29T09:16:10.681Z,21.53
2018-04-29T09:18:38.299Z,22.92
2018-04-29T09:21:05.857Z,23.35
2018-04-29T09:23:33.456Z,23.08
2018-04-29T09:26:01.139Z,24.46
2018-04-29T09:28:28.738Z,24.53
2018-04-29T09:30:56.428Z,24.92
2018-04-29T09:33:24.095Z,24.21
2018-04-29T09:35:52.347Z,22.07
2018-04-29T09:38:19.942Z,22.77
2018-04-29T09:40:47.514Z,20.60
2018-04-29T09:43:15.133Z,17.53
2018-04-29T09:45:42.682Z,21.83
2018-04-29T09:48:10.291Z,22.60
2018-04-29T09:50:38.040Z,22.83
2018-04-29T09:53:05.602Z,21.73
2018-04-29T09:55:33.150Z,21.90
2018-04-29T09:58:00.911Z,21.02
2018-04-29T10:00:28.521Z,21.47
2018-04-29T10:03:11.726Z,22.66
2018-04-29T10:05:39.285Z,23.91
2018-04-29T10:08:07.830Z,25.46
2018-04-29T10:10:35.370Z,22.63
2018-04-29T10:13:02.960Z,21.88
2018-04-29T10:15:30.568Z,23.18
2018-04-29T10:17:58.169Z,22.85
2018-04-29T10:20:25.718Z,23.44
2018-04-29T10:22:53.323Z,22.21
2018-04-29T10:25:20.917Z,21.08
2018-04-29T10:27:48.458Z,22.80
2018-04-29T10:30:16.127Z,19.97
2018-04-29T10:32:44.545Z,19.03
2018-04-29T10:35:12.041Z,18.82
2018-04-29T10:37:39.642Z,16.88
2018-04-29T10:40:07.229Z,20.35
2018-04-29T10:42:34.846Z,24.43
2018-04-29T10:45:02.505Z,21.60
2018-04-29T10:47:31.049Z,21.94
2018-04-29T10:49:58.638Z,19.68
2018-04-29T10:52:26.231Z,19.89
2018-04-29T10:54:53.846Z,20.97
2018-04-29T10:57:21.394Z,20.47
2018-04-29T10:59:48.964Z,20.02
2018-04-29T11:02:16.642Z,18.93
2018-04-29T11:04:46.255Z,18.89
2018-04-29T11:07:13.798Z,18.70
2018-04-29T11:09:41.407Z,18.01
2018-04-29T11:12:09.021Z,18.01
2018-04-29T11:14:36.589Z,21.45
2018-04-29T11:17:05.142Z,21.31
2018-04-29T11:19:32.687Z,23.21
2018-04-29T11:22:00.282Z,21.99
2018-04-29T11:24:27.943Z,19.91
2018-04-29T11:26:56.314Z,20.72
2018-04-29T11:29:24.924Z,20.65
2018-04-29T11:31:52.526Z,21.30
2018-04-29T11:34:20.170Z,23.79
2018-04-29T11:36:48.596Z,25.73
2018-04-29T11:39:18.050Z,24.85
2018-04-29T11:41:45.796Z,24.01
2018-04-29T11:44:13.403Z,22.04
2018-04-29T11:46:41.974Z,21.69
2018-04-29T11:49:09.576Z,20.30
2018-04-29T11:51:37.126Z,19.93
2018-04-29T11:54:05.574Z,19.69
2018-04-29T11:56:33.186Z,19.84
2018-04-29T11:59:00.738Z,23.40
2018-04-29T12:01:28.389Z,23.24
2018-04-29T12:03:56.006Z,21.85
2018-04-29T12:06:23.559Z,22.75
2018-04-29T12:08:51.155Z,22.26
2018-04-29T12:11:18.829Z,23.55
2018-04-29T12:13:46.439Z,22.18
2018-04-29T12:16:13.986Z,22.19
2018-04-29T12:18:41.577Z,21.97
2018-04-29T12:21:10.046Z,21.46
2018-04-29T12:23:38.470Z,21.40
2018-04-29T12:26:06.023Z,20.94
2018-04-29T12:28:33.694Z,22.12
2018-04-29T12:31:02.163Z,23.12
2018-04-29T12:33:29.767Z,23.56
2018-04-29T12:35:57.306Z,22.63
2018-04-29T12:38:24.890Z,22.90
2018-04-29T12:40:52.446Z,22.59
2018-04-29T12:43:20.041Z,21.52
2018-04-29T12:45:47.626Z,21.14
2018-04-29T12:48:15.215Z,22.57
2018-04-29T12:50:42.818Z,22.90
2018-04-29T12:53:10.362Z,21.67
2018-04-29T12:55:37.967Z,24.21
2018-04-29T12:58:05.563Z,24.35
2018-04-29T13:00:33.105Z,22.42
2018-04-29T13:03:00.649Z,22.17
2018-04-29T13:05:28.300Z,21.54
2018-04-29T13:07:55.902Z,22.80
2018-04-29T13:10:24.037Z,21.96
2018-04-29T13:12:52.694Z,20.83
2018-04-29T13:15:20.354Z,22.16
2018-04-29T13:17:48.413Z,21.57
2018-04-29T13:20:16.092Z,21.50
2018-04-29T13:22:44.929Z,21.76
2018-04-29T13:25:13.060Z,23.10
2018-04-29T13:27:40.738Z,23.76
2018-04-29T13:30:09.326Z,24.01
2018-04-29T13:32:37.071Z,22.73
2018-04-29T13:35:04.681Z,22.25
2018-04-29T13:37:32.331Z,22.95
2018-04-29T13:40:00.904Z,22.81
2018-04-29T13:42:29.279Z,22.86
2018-04-29T13:44:57.986Z,22.72
2018-04-29T13:47:26.875Z,21.87
2018-04-29T13:49:54.478Z,25.21
2018-04-29T13:52:22.102Z,26.33
2018-04-29T13:54:49.658Z,29.20
2018-04-29T13:57:17.200Z,29.86
2018-04-29T13:59:44.811Z,29.61
2018-04-29T14:02:13.122Z,30.53
2018-04-29T14:04:40.779Z,31.17
2018-04-29T14:07:09.252Z,30.10
2018-04-29T14:09:37.748Z,30.30
2018-04-29T14:12:06.255Z,31.07
2018-04-29T14:14:33.802Z,32.34
2018-04-29T14:17:02.035Z,33.67
2018-04-29T14:19:29.665Z,33.62
2018-04-29T14:21:58.049Z,33.65
2018-04-29T14:24:26.738Z,33.34
2018-04-29T14:26:54.455Z,34.61
2018-04-29T14:29:22.067Z,34.56
2018-04-29T14:31:49.801Z,33.97
2018-04-29T14:34:17.495Z,33.61
2018-04-29T14:36:45.034Z,32.25
2018-04-29T14:39:13.380Z,31.27
2018-04-29T14:41:40.930Z,29.99
2018-04-29T14:44:08.494Z,30.43
2018-04-29T14:46:36.126Z,30.95
2018-04-29T14:49:04.522Z,30.56
2018-04-29T14:51:32.063Z,31.49
2018-04-29T14:54:00.383Z,31.98
2018-04-29T14:56:28.742Z,33.33
2018-04-29T14:58:57.114Z,33.65
2018-04-29T15:01:25.308Z,33.59
2018-04-29T15:03:52.891Z,33.78
2018-04-29T15:06:21.499Z,33.88
2018-04-29T15:08:49.106Z,34.96
2018-04-29T15:11:16.856Z,36.97
2018-04-29T15:13:44.502Z,36.52
2018-04-29T15:16:13.069Z,37.23
2018-04-29T15:18:52.325Z,37.56
2018-04-29T15:21:19.870Z,38.68
2018-04-29T15:23:47.523Z,38.17
2018-04-29T15:26:15.673Z,39.45
2018-04-29T15:28:43.283Z,40.15
2018-04-29T15:31:11.805Z,41.47
2018-04-29T15:33:40.429Z,41.36
2018-04-29T15:36:07.984Z,41.39
2018-04-29T15:38:35.574Z,41.20
2018-04-29T15:41:03.249Z,41.87
2018-04-29T15:43:31.807Z,42.62
2018-04-29T15:45:59.359Z,42.61
2018-04-29T15:48:27.024Z,44.36
2018-04-29T15:50:55.513Z,44.24
2018-04-29T15:53:23.098Z,44.29
2018-04-29T15:55:50.746Z,44.99
2018-04-29T15:58:18.299Z,45.46
2018-04-29T16:00:45.901Z,45.07
2018-04-29T16:03:13.450Z,43.14
2018-04-29T16:05:41.088Z,43.99
2018-04-29T16:08:08.665Z,46.94
2018-04-29T16:10:36.718Z,45.93
2018-04-29T16:13:04.301Z,46.17
2018-04-29T16:15:32.050Z,46.77
2018-04-29T16:17:59.787Z,45.96
2018-04-29T16:20:27.354Z,44.19
2018-04-29T16:22:55.019Z,45.62
2018-04-29T16:25:23.518Z,44.74
2018-04-29T16:27:51.058Z,46.00
2018-04-29T16:30:18.701Z,45.68
2018-04-29T16:32:46.351Z,45.87
2018-04-29T16:35:14.705Z,45.65
2018-04-29T16:37:43.105Z,45.44
2018-04-29T16:40:10.692Z,45.72
2018-04-29T16:42:38.247Z,46.42
2018-04-29T16:45:05.899Z,46.75
2018-04-29T16:47:34.298Z,47.58
2018-04-29T16:50:02.155Z,48.12
2018-04-29T16:52:29.750Z,46.90
2018-04-29T16:54:57.350Z,47.89
2018-04-29T16:57:24.913Z,47.59
2018-04-29T16:59:52.934Z,49.13
2018-04-29T17:02:21.321Z,48.51
2018-04-29T17:04:49.721Z,49.99
2018-04-29T17:07:17.956Z,49.63
2018-04-29T17:09:45.686Z,50.49
2018-04-29T17:12:13.288Z,50.44
2018-04-29T17:14:42.358Z,51.44
2018-04-29T17:17:10.039Z,51.89
2018-04-29T17:19:37.615Z,50.60
2018-04-29T17:22:05.201Z,51.08
2018-04-29T17:24:32.752Z,50.99
2018-04-29T17:27:00.594Z,52.54
2018-04-29T17:29:28.256Z,53.72
2018-04-29T17:31:56.759Z,52.83
2018-04-29T17:34:25.638Z,52.26
2018-04-29T17:36:53.274Z,52.29
2018-04-29T17:39:21.694Z,52.13
2018-04-29T17:41:49.351Z,51.86
2018-04-29T17:44:16.955Z,52.79
2018-04-29T17:46:44.606Z,52.39
2018-04-29T17:49:12.316Z,52.77
2018-04-29T17:51:41.228Z,52.42
2018-04-29T17:54:09.847Z,53.50
2018-04-29T17:56:38.969Z,53.16
2018-04-29T17:59:06.507Z,52.68
2018-04-29T18:01:34.475Z,51.95
2018-04-29T18:04:02.109Z,53.47
2018-04-29T18:06:29.717Z,52.27
2018-04-29T18:08:58.810Z,51.23
2018-04-29T18:11:27.002Z,51.87
2018-04-29T18:13:58.483Z,52.47
2018-04-29T18:16:26.066Z,51.74
2018-04-29T18:18:53.608Z,52.69
2018-04-29T18:21:21.990Z,52.29
2018-04-29T18:23:49.537Z,52.43
2018-04-29T18:26:17.963Z,53.09
2018-04-29T18:28:45.658Z,52.65
2018-04-29T18:31:14.006Z,53.38
2018-04-29T18:33:41.614Z,53.52
2018-04-29T18:36:09.274Z,53.78
2018-04-29T18:38:36.885Z,54.31
2018-04-29T18:41:04.426Z,52.90
2018-04-29T18:43:32.038Z,53.31
2018-04-29T18:45:59.706Z,51.77
2018-04-29T18:48:27.346Z,51.31
2018-04-29T18:50:56.008Z,50.89
2018-04-29T18:53:24.513Z,51.71
2018-04-29T18:55:52.102Z,50.17
2018-04-29T18:58:19.726Z,50.50
2018-04-29T19:00:47.345Z,51.32
2018-04-29T19:03:15.991Z,51.24
2018-04-29T19:05:47.454Z,49.82
2018-04-29T19:08:15.062Z,50.91
2018-04-29T19:10:42.616Z,51.11
2018-04-29T19:13:11.018Z,51.10
2018-04-29T19:15:38.558Z,52.38
2018-04-29T19:18:06.159Z,51.75
2018-04-29T19:20:33.759Z,51.52
2018-04-29T19:23:01.368Z,52.53
2018-04-29T19:25:30.347Z,52.30
2018-04-29T19:28:00.115Z,51.77
2018-04-29T19:30:27.719Z,51.92
2018-04-29T19:32:57.427Z,54.25
2018-04-29T19:35:24.971Z,53.63
2018-04-29T19:37:53.179Z,53.30
2018-04-29T19:40:20.747Z,52.80
2018-04-29T19:42:49.027Z,54.64
2018-04-29T19:45:16.683Z,54.34
2018-04-29T19:47:44.230Z,53.14
2018-04-29T19:50:11.862Z,52.57
2018-04-29T19:52:39.434Z,53.60
2018-04-29T19:55:07.519Z,52.19
2018-04-29T19:57:35.507Z,52.21
2018-04-29T20:00:03.054Z,52.05
2018-04-29T20:02:31.114Z,51.59
2018-04-29T20:04:58.658Z,52.48
2018-04-29T20:07:26.202Z,51.05
2018-04-29T20:09:54.039Z,51.50
2018-04-29T20:12:21.582Z,50.34
2018-04-29T20:14:49.183Z,50.26
2018-04-29T20:17:18.026Z,50.43
2018-04-29T20:19:45.618Z,50.14
2018-04-29T20:22:13.698Z,50.91
2018-04-29T20:24:41.315Z,49.74
2018-04-29T20:27:08.922Z,50.22
2018-04-29T20:29:36.564Z,51.24
2018-04-29T20:32:04.202Z,51.09
2018-04-29T20:34:32.682Z,52.34
2018-04-29T20:37:00.222Z,51.06
2018-04-29T20:39:27.827Z,50.14
2018-04-29T20:41:55.455Z,50.36
2018-04-29T20:44:23.038Z,51.31
2018-04-29T20:46:50.641Z,51.20
2018-04-29T20:49:18.282Z,51.85
2018-04-29T20:51:45.825Z,51.87
2018-04-29T20:54:13.421Z,52.01
2018-04-29T20:56:40.967Z,50.77
2018-04-29T20:59:09.028Z,51.67
2018-04-29T21:01:36.641Z,49.18
2018-04-29T21:04:04.198Z,50.18
2018-04-29T21:06:31.935Z,50.30
2018-04-29T21:08:59.688Z,50.40
2018-04-29T21:11:27.290Z,50.03
2018-04-29T21:13:54.982Z,50.13
2018-04-29T21:16:23.338Z,50.62
2018-04-29T21:18:51.909Z,51.51
2018-04-29T21:21:19.446Z,52.31
2018-04-29T21:23:46.986Z,51.66
2018-04-29T21:26:14.576Z,51.79
2018-04-29T21:28:42.114Z,49.32
2018-04-29T21:31:09.725Z,49.60
2018-04-29T21:33:37.339Z,50.64
2018-04-29T21:36:04.941Z,49.69
2018-04-29T21:38:32.602Z,50.77
2018-04-29T21:41:00.146Z,49.64
2018-04-29T21:43:27.904Z,48.65
2018-04-29T21:45:55.514Z,50.51
2018-04-29T21:48:25.074Z,50.11
2018-04-29T21:50:52.616Z,49.89
2018-04-29T21:53:20.255Z,50.48
2018-04-29T21:55:47.802Z,51.61
2018-04-29T21:58:15.386Z,50.94
2018-04-29T22:00:42.983Z,50.87
2018-04-29T22:03:10.579Z,53.14
2018-04-29T22:05:38.125Z,52.30
2018-04-29T22:08:05.738Z,53.33
2018-04-29T22:10:33.286Z,53.63
2018-04-29T22:13:02.555Z,52.81
2018-04-29T22:15:30.210Z,54.81
2018-04-29T22:17:58.757Z,54.74
2018-04-29T22:20:26.371Z,55.84
2018-04-29T22:22:54.041Z,55.54
2018-04-29T22:25:21.642Z,54.58
2018-04-29T22:27:49.275Z,56.12
2018-04-29T22:30:16.814Z,55.50
2018-04-29T22:32:44.358Z,54.88
2018-04-29T22:35:11.955Z,53.17
2018-04-29T22:37:39.557Z,56.45
2018-04-29T22:40:08.090Z,54.78
2018-04-29T22:42:35.634Z,55.99
2018-04-29T22:45:03.183Z,55.80
2018-04-29T22:47:30.830Z,54.86
2018-04-29T22:49:58.474Z,56.97
2018-04-29T22:52:26.074Z,55.75
2018-04-29T22:54:53.621Z,56.18
2018-04-29T22:57:22.042Z,54.57
2018-04-29T22:59:49.616Z,54.62
2018-04-29T23:02:19.079Z,54.64
2018-04-29T23:04:46.689Z,56.65
2018-04-29T23:07:14.234Z,56.71
2018-04-29T23:09:42.802Z,54.42
2018-04-29T23:12:10.342Z,53.96
2018-04-29T23:14:37.984Z,54.05
2018-04-29T23:17:05.654Z,54.37
2018-04-29T23:19:34.049Z,54.52
2018-04-29T23:22:01.592Z,54.97
2018-04-29T23:24:29.188Z,55.58
2018-04-29T23:26:56.730Z,55.93
2018-04-29T23:29:24.270Z,55.65
2018-04-29T23:31:51.866Z,55.99
2018-04-29T23:34:19.410Z,58.90
2018-04-29T23:36:46.997Z,57.52
2018-04-29T23:39:14.538Z,57.62
2018-04-29T23:41:43.022Z,58.18
2018-04-29T23:44:10.607Z,57.87
2018-04-29T23:46:38.210Z,57.88
2018-04-29T23:49:05.864Z,58.67
2018-04-29T23:51:33.406Z,58.10
2018-04-29T23:54:01.042Z,58.34
2018-04-29T23:56:28.588Z,58.40
2018-04-29T23:58:56.240Z,59.11
